Terminal Aerodrome Forecast
Issued by NWS El Paso, TX

Home | Current Version | Previous Version | Text Only | Print | Product List | Glossary On
Versions: 1 2 3 4 5 6 7 8 9 10 11 12 13 14 15
388
FTUS44 KEPZ 182337
TAFELP
TAF
KELP 182337Z 1900/1924 26012G18KT P6SM SCT050 SCT120
     FM190300 24008KT P6SM FEW120 FEW250
     FM191600 23015G25KT P6SM FEW150 BKN250
     FM192000 25022G32KT P6SM FEW150 BKN250=

USA.gov is the U.S. government's official web portal to all federal, state and local government web resources and services.